Danville, Kentucky
Current Conditions -  °F | °C
As of 6:55 AM on Sunday 21 Dec 2014 (Local Time) from KDVK Reporting Station
Haze Haze  
Wind Chill: 21°   Ceiling: 300
Heat Index: 21°   Visibility: 4mi
Dew Point: 19°   Wind: 0mph
Humidity: 93%   Direction: NA
Pressure: 30.29"   Gusts: NA
Location:  37.65°N, 84.77°W
Report Text: KDVK 211155Z AUTO 00000KT 4SM BR OVC003 M06/M07 A3029 RMK AO2
Loading
Personal Weather Stations






























Interactive Weather Map New forecast layout! Learn more

10-Day Weather Forecast

Advertisements
Track Severe Weather on mobile